createdAt,value
2023-04-17T00:03:47.577Z,7.24
2023-04-17T00:08:48.956Z,7.20
2023-04-17T00:13:50.140Z,7.19
2023-04-17T00:18:51.163Z,7.16
2023-04-17T00:23:52.198Z,7.09
2023-04-17T00:28:53.224Z,7.00
2023-04-17T00:33:54.267Z,6.93
2023-04-17T00:38:55.403Z,6.90
2023-04-17T00:43:56.405Z,6.87
2023-04-17T00:48:59.255Z,6.79
2023-04-17T00:54:00.578Z,6.69
2023-04-17T00:59:05.782Z,6.62
2023-04-17T01:04:09.252Z,6.61
2023-04-17T01:09:11.045Z,6.59
2023-04-17T01:14:14.142Z,6.53
2023-04-17T01:19:16.214Z,6.46
2023-04-17T01:24:17.362Z,6.41
2023-04-17T01:29:18.358Z,6.40
2023-04-17T01:34:19.836Z,6.42
2023-04-17T01:39:21.023Z,6.35
2023-04-17T01:44:22.020Z,6.26
2023-04-17T01:49:23.046Z,6.12
2023-04-17T01:54:24.327Z,6.02
2023-04-17T01:59:25.385Z,5.84
2023-04-17T02:04:26.586Z,6.00
2023-04-17T02:09:28.042Z,5.98
2023-04-17T02:14:30.533Z,5.93
2023-04-17T02:19:31.597Z,5.91
2023-04-17T02:24:32.633Z,5.91
2023-04-17T02:29:34.654Z,5.93
2023-04-17T02:34:36.124Z,5.87
2023-04-17T02:39:37.325Z,5.80
2023-04-17T02:44:39.288Z,5.69
2023-04-17T02:49:41.169Z,5.60
2023-04-17T02:54:42.296Z,5.58
2023-04-17T02:59:44.287Z,5.60
2023-04-17T03:04:48.410Z,5.54
2023-04-17T03:09:49.722Z,5.45
2023-04-17T03:14:51.469Z,5.40
2023-04-17T03:19:52.477Z,5.41
2023-04-17T03:24:53.481Z,5.46
2023-04-17T03:29:55.810Z,5.50
2023-04-17T03:34:57.113Z,5.60
2023-04-17T03:39:58.108Z,5.71
2023-04-17T03:44:59.794Z,5.81
2023-04-17T03:50:01.614Z,5.84
2023-04-17T03:55:07.686Z,5.87
2023-04-17T04:00:12.185Z,5.93
2023-04-17T04:05:25.152Z,5.88
2023-04-17T04:10:27.261Z,6.08
2023-04-17T04:15:28.722Z,6.17
2023-04-17T04:20:33.066Z,6.30
2023-04-17T04:25:45.960Z,6.45
2023-04-17T04:30:58.130Z,6.54
2023-04-17T04:36:01.924Z,6.46
2023-04-17T04:41:09.335Z,6.70
2023-04-17T04:46:10.844Z,6.84
2023-04-17T04:51:18.268Z,6.96
2023-04-17T04:56:19.849Z,7.03
2023-04-17T05:01:23.499Z,7.22
2023-04-17T05:06:25.461Z,7.45
2023-04-17T05:11:31.660Z,7.67
2023-04-17T05:16:33.077Z,7.75
2023-04-17T05:21:34.628Z,7.76
2023-04-17T05:26:36.217Z,7.85
2023-04-17T05:31:39.689Z,7.92
2023-04-17T05:36:46.037Z,8.06
2023-04-17T05:41:48.174Z,8.18
2023-04-17T05:46:49.114Z,8.39
2023-04-17T05:51:50.367Z,8.64
2023-04-17T05:56:52.393Z,8.79
2023-04-17T06:01:53.919Z,8.92
2023-04-17T06:06:55.913Z,9.00
2023-04-17T06:11:57.447Z,9.11
2023-04-17T06:16:58.756Z,9.13
2023-04-17T06:21:59.865Z,9.19
2023-04-17T06:27:01.311Z,9.36
2023-04-17T06:32:02.356Z,9.80
2023-04-17T06:37:03.905Z,10.12
2023-04-17T06:42:05.803Z,10.24
2023-04-17T06:47:11.451Z,10.51
2023-04-17T06:52:12.657Z,10.94
2023-04-17T06:57:13.662Z,11.02
2023-04-17T07:02:14.824Z,10.97
2023-04-17T07:07:16.337Z,11.27
2023-04-17T07:12:17.432Z,11.73
2023-04-17T07:17:18.860Z,11.78
2023-04-17T07:22:20.110Z,11.95
2023-04-17T07:27:21.348Z,11.96
2023-04-17T07:32:25.818Z,12.11
2023-04-17T07:37:26.866Z,12.41
2023-04-17T07:42:28.610Z,12.69
2023-04-17T07:47:30.341Z,12.44
2023-04-17T07:52:31.374Z,12.26
2023-04-17T07:57:32.532Z,12.31
2023-04-17T08:02:33.675Z,12.47
2023-04-17T08:07:35.824Z,12.63
2023-04-17T08:12:37.201Z,12.90
2023-04-17T08:17:38.261Z,13.43
2023-04-17T08:22:40.686Z,14.01
2023-04-17T08:27:42.623Z,14.47
2023-04-17T08:32:45.604Z,14.49
2023-04-17T08:37:46.602Z,14.30
2023-04-17T08:42:49.664Z,14.26
2023-04-17T08:47:50.726Z,14.04
2023-04-17T08:52:51.992Z,14.11
2023-04-17T08:57:56.587Z,14.14
2023-04-17T09:02:59.450Z,13.97
2023-04-17T09:08:19.892Z,14.02
2023-04-17T09:13:24.295Z,14.01
2023-04-17T09:18:30.237Z,13.96
2023-04-17T09:23:49.544Z,14.04
2023-04-17T09:29:10.535Z,14.24
2023-04-17T09:34:12.784Z,14.19
2023-04-17T09:39:19.844Z,14.34
2023-04-17T09:44:29.428Z,14.56
2023-04-17T09:49:37.290Z,14.78
2023-04-17T09:54:39.365Z,14.95
2023-04-17T09:59:44.430Z,14.83
2023-04-17T10:04:46.777Z,14.89
2023-04-17T10:09:47.813Z,15.15
2023-04-17T10:14:57.555Z,15.23
2023-04-17T10:20:17.062Z,15.28
2023-04-17T10:25:20.030Z,15.26
2023-04-17T10:30:21.854Z,15.27
2023-04-17T10:35:23.137Z,15.52
2023-04-17T10:40:29.971Z,15.83
2023-04-17T10:45:56.289Z,16.27
2023-04-17T10:50:57.533Z,16.59
2023-04-17T10:55:58.575Z,16.70
2023-04-17T11:01:09.164Z,16.77
2023-04-17T11:06:12.536Z,16.74
2023-04-17T11:11:18.530Z,16.68
2023-04-17T11:16:25.028Z,16.46
2023-04-17T11:21:26.641Z,16.19
2023-04-17T11:26:27.658Z,15.92
2023-04-17T11:31:28.716Z,15.48
2023-04-17T11:36:32.172Z,15.02
2023-04-17T11:41:41.844Z,14.59
2023-04-17T11:47:00.152Z,14.17
2023-04-17T11:52:03.652Z,13.93
2023-04-17T11:57:10.080Z,13.90
2023-04-17T12:02:11.668Z,13.92
2023-04-17T12:07:22.240Z,13.76
2023-04-17T12:12:23.534Z,13.55
2023-04-17T12:17:24.714Z,13.45
2023-04-17T12:22:25.974Z,13.39
2023-04-17T12:27:27.302Z,13.35
2023-04-17T12:32:28.739Z,13.38
2023-04-17T12:37:29.726Z,13.48
2023-04-17T12:42:33.709Z,13.67
2023-04-17T12:47:41.490Z,13.83
2023-04-17T12:52:42.515Z,13.96
2023-04-17T12:57:43.577Z,14.11
2023-04-17T13:02:44.684Z,14.01
2023-04-17T13:07:46.640Z,13.85
2023-04-17T13:12:47.829Z,13.76
2023-04-17T13:17:48.871Z,13.58
2023-04-17T13:22:49.893Z,13.40
2023-04-17T13:27:51.043Z,13.35
2023-04-17T13:32:52.056Z,13.17
2023-04-17T13:37:54.176Z,13.04
2023-04-17T13:42:55.620Z,13.05
2023-04-17T13:47:56.771Z,13.33
2023-04-17T13:52:57.792Z,13.73
2023-04-17T13:58:00.326Z,14.24
2023-04-17T14:03:01.479Z,14.61
2023-04-17T14:08:02.681Z,14.68
2023-04-17T14:13:03.669Z,14.49
2023-04-17T14:18:04.969Z,14.69
2023-04-17T14:23:06.122Z,14.49
2023-04-17T14:28:07.262Z,14.16
2023-04-17T14:33:08.395Z,13.80
2023-04-17T14:38:09.514Z,13.49
2023-04-17T14:43:10.775Z,13.16
2023-04-17T14:48:11.832Z,12.88
2023-04-17T14:53:13.171Z,12.75
2023-04-17T14:58:14.113Z,12.70
2023-04-17T15:03:15.188Z,12.64
2023-04-17T15:08:16.213Z,12.56
2023-04-17T15:13:17.204Z,12.45
2023-04-17T15:18:18.200Z,12.25
2023-04-17T15:23:20.450Z,12.17
2023-04-17T15:28:21.432Z,12.11
2023-04-17T15:33:22.467Z,12.09
2023-04-17T15:38:27.050Z,12.10
2023-04-17T15:43:28.313Z,12.10
2023-04-17T15:48:29.368Z,12.04
2023-04-17T15:53:31.174Z,11.91
2023-04-17T15:58:33.418Z,11.77
2023-04-17T16:03:36.775Z,11.68
2023-04-17T16:08:37.988Z,11.60
2023-04-17T16:13:39.102Z,11.57
2023-04-17T16:18:40.314Z,11.53
2023-04-17T16:23:41.386Z,11.49
2023-04-17T16:28:42.638Z,11.41
2023-04-17T16:33:43.758Z,11.32
2023-04-17T16:38:45.518Z,11.23
2023-04-17T16:43:46.545Z,11.14
2023-04-17T16:48:47.622Z,11.05
2023-04-17T16:53:51.914Z,11.00
2023-04-17T16:58:53.120Z,11.00
2023-04-17T17:03:54.318Z,10.98
2023-04-17T17:08:55.561Z,10.96
2023-04-17T17:13:57.263Z,10.90
2023-04-17T17:18:59.475Z,10.86
2023-04-17T17:24:00.534Z,10.81
2023-04-17T17:29:01.839Z,10.76
2023-04-17T17:34:17.010Z,10.69
2023-04-17T17:39:23.347Z,10.59
2023-04-17T17:44:24.383Z,10.45
2023-04-17T17:49:25.291Z,10.33
2023-04-17T17:54:26.244Z,10.24
2023-04-17T17:59:27.241Z,10.16
2023-04-17T18:04:28.490Z,10.11
2023-04-17T18:09:30.396Z,10.08
2023-04-17T18:14:31.483Z,10.10
2023-04-17T18:19:32.660Z,10.09
2023-04-17T18:24:34.603Z,10.07
2023-04-17T18:29:35.647Z,10.00
2023-04-17T18:34:36.730Z,9.93
2023-04-17T18:39:37.718Z,9.85
2023-04-17T18:44:38.724Z,9.78
2023-04-17T18:49:39.765Z,9.73
2023-04-17T18:54:40.712Z,9.69
2023-04-17T18:59:43.157Z,9.65
2023-04-17T19:04:44.454Z,9.59
2023-04-17T19:09:45.585Z,9.53
2023-04-17T19:14:46.510Z,9.47
2023-04-17T19:19:47.453Z,9.43
2023-04-17T19:24:50.287Z,9.39
2023-04-17T19:29:51.272Z,9.36
2023-04-17T19:34:52.216Z,9.36
2023-04-17T19:39:56.515Z,9.35
2023-04-17T19:44:57.903Z,9.33
2023-04-17T19:49:58.901Z,9.33
2023-04-17T19:55:00.857Z,9.33
2023-04-17T20:00:03.360Z,9.30
2023-04-17T20:05:13.702Z,9.27
2023-04-17T20:10:16.084Z,9.23
2023-04-17T20:15:19.228Z,9.19
2023-04-17T20:20:20.736Z,9.17
2023-04-17T20:25:22.379Z,9.15
2023-04-17T20:30:24.046Z,9.11
2023-04-17T20:35:25.072Z,9.06
2023-04-17T20:40:26.306Z,9.05
2023-04-17T20:45:27.470Z,9.05
2023-04-17T20:50:28.483Z,9.03
2023-04-17T20:55:29.666Z,9.04
2023-04-17T21:00:33.990Z,8.92
2023-04-17T21:05:34.962Z,9.03
2023-04-17T21:10:36.992Z,9.03
2023-04-17T21:15:41.541Z,9.02
2023-04-17T21:20:42.572Z,9.02
2023-04-17T21:25:43.562Z,9.04
2023-04-17T21:30:44.569Z,9.02
2023-04-17T21:35:45.611Z,9.01
2023-04-17T21:40:51.421Z,8.99
2023-04-17T21:45:56.379Z,9.00
2023-04-17T21:51:05.575Z,8.99
2023-04-17T21:56:07.754Z,8.98
2023-04-17T22:01:08.776Z,8.96
2023-04-17T22:06:10.823Z,8.94
2023-04-17T22:11:11.836Z,8.93
2023-04-17T22:16:12.848Z,8.93
2023-04-17T22:21:14.882Z,8.94
2023-04-17T22:26:15.958Z,8.95
2023-04-17T22:31:16.973Z,8.95
2023-04-17T22:36:17.999Z,8.95
2023-04-17T22:41:18.966Z,8.94
2023-04-17T22:46:20.264Z,8.93
2023-04-17T22:51:21.728Z,8.89
2023-04-17T22:56:23.741Z,8.84
2023-04-17T23:01:24.962Z,8.81
2023-04-17T23:06:25.989Z,8.78
2023-04-17T23:11:30.810Z,8.72
2023-04-17T23:16:32.108Z,8.75
2023-04-17T23:21:33.152Z,8.73
2023-04-17T23:26:34.203Z,8.70
2023-04-17T23:31:38.230Z,8.71
2023-04-17T23:36:39.251Z,8.70
2023-04-17T23:41:41.505Z,8.70
2023-04-17T23:46:42.480Z,8.71
2023-04-17T23:51:45.171Z,8.72
2023-04-17T23:56:46.512Z,8.71
